Time;durP1;ratioP1;P1;durP2;ratioP2;P2;SDS_P1;SDS_P2;PMS_P1;PMS_P2;Temp;Humidity;BMP_temperature;BMP_pressure;BME280_temperature;BME280_humidity;BME280_pressure;Samples;Min_cycle;Max_cycle;Signal;HPM_P1;HPM_P2
2022/09/17 00:05:24;;;;;;;4.10;3.70;;;;;;;6.20;83.55;98251.60;430751;1274;142041;-60
2022/09/17 00:15:30;;;;;;;4.50;4.10;;;;;;;6.18;83.81;98248.61;431590;1273;141617;-62
2022/09/17 00:25:37;;;;;;;5.10;4.60;;;;;;;6.13;83.97;98243.39;429799;1274;143520;-61
2022/09/17 00:35:43;;;;;;;6.60;4.40;;;;;;;6.10;84.29;98246.67;429522;1274;141956;-62
2022/09/17 00:45:52;;;;;;;3.20;2.90;;;;;;;6.13;84.65;98246.63;430826;1274;142313;-62
2022/09/17 00:56:02;;;;;;;4.10;2.90;;;;;;;6.19;84.95;98255.80;429383;1276;142760;-60
2022/09/17 01:06:18;;;;;;;4.50;3.00;;;;;;;6.24;85.17;98254.44;430171;1273;141746;-62
2022/09/17 01:16:34;;;;;;;5.20;3.10;;;;;;;6.16;85.18;98252.70;430787;1274;142012;-62
2022/09/17 01:26:58;;;;;;;5.10;3.60;;;;;;;6.14;85.33;98257.73;430572;1274;142072;-61
2022/09/17 01:37:10;;;;;;;2.40;2.20;;;;;;;6.13;85.60;98253.60;431115;1274;141777;-63
2022/09/17 01:47:20;;;;;;;3.00;2.50;;;;;;;6.15;85.82;98252.27;429449;1274;142212;-61
2022/09/17 01:57:32;;;;;;;3.30;2.30;;;;;;;6.11;85.81;98252.01;430854;1275;142648;-61
2022/09/17 02:07:45;;;;;;;3.40;3.20;;;;;;;6.05;85.92;98248.73;446351;1275;141827;-62
2022/09/17 02:17:54;;;;;;;3.50;2.90;;;;;;;6.04;86.10;98236.28;445932;1273;143055;-61
2022/09/17 02:28:04;;;;;;;5.70;2.70;;;;;;;6.05;86.28;98224.61;446832;1274;143290;-64
2022/09/17 02:38:10;;;;;;;3.90;3.20;;;;;;;6.04;86.29;98226.04;445947;1274;142432;-63
2022/09/17 02:48:56;;;;;;;2.30;2.10;;;;;;;6.00;86.30;98227.67;446767;1274;198659;-62
2022/09/17 02:59:12;;;;;;;3.40;2.60;;;;;;;5.91;86.41;98221.84;445994;1274;142973;-62
2022/09/17 03:09:18;;;;;;;3.00;2.80;;;;;;;5.88;86.68;98221.14;446831;1274;143425;-62
2022/09/17 03:19:23;;;;;;;3.70;2.80;;;;;;;5.90;86.81;98222.09;446807;1274;142312;-62
2022/09/17 03:29:29;;;;;;;2.60;2.40;;;;;;;5.88;86.81;98218.89;446066;1274;142779;-62
2022/09/17 03:39:35;;;;;;;3.70;2.80;;;;;;;5.88;86.93;98215.27;446779;1274;199973;-62
2022/09/17 03:49:40;;;;;;;5.60;3.50;;;;;;;5.87;86.88;98203.02;440592;1274;142625;-61
2022/09/17 03:59:46;;;;;;;3.90;2.60;;;;;;;5.82;86.95;98197.95;440149;1275;142490;-61
2022/09/17 04:09:52;;;;;;;2.50;2.30;;;;;;;5.84;87.22;98195.89;446682;1273;141817;-62
2022/09/17 04:19:58;;;;;;;6.70;2.40;;;;;;;6.12;87.57;98193.75;446023;1274;143279;-61
2022/09/17 04:30:03;;;;;;;2.80;2.50;;;;;;;6.47;87.21;98197.29;446731;1274;141229;-62
2022/09/17 04:40:11;;;;;;;3.60;2.70;;;;;;;6.88;86.94;98206.45;446840;1274;200561;-62
2022/09/17 04:50:17;;;;;;;4.90;1.70;;;;;;;7.31;86.38;98205.48;445999;1272;143170;-62
2022/09/17 05:00:24;;;;;;;2.60;2.00;;;;;;;7.63;85.54;98206.95;446745;1274;141863;-62
2022/09/17 05:10:30;;;;;;;2.70;2.50;;;;;;;7.82;84.94;98211.13;446362;1275;142139;-63
2022/09/17 05:20:35;;;;;;;3.20;2.20;;;;;;;7.98;84.44;98207.32;446022;1274;143033;-63
2022/09/17 05:30:41;;;;;;;2.80;2.00;;;;;;;8.13;83.99;98208.33;446769;1274;142035;-61
2022/09/17 05:40:47;;;;;;;2.40;1.60;;;;;;;8.35;83.47;98204.23;442549;1274;142914;-59
2022/09/17 05:50:54;;;;;;;4.90;2.00;;;;;;;8.65;83.27;98199.54;445871;1275;145146;-59
2022/09/17 06:01:01;;;;;;;2.80;1.60;;;;;;;8.91;82.96;98188.89;446795;1274;142001;-59
2022/09/17 06:11:08;;;;;;;2.40;1.50;;;;;;;9.13;82.48;98184.52;445753;1275;141706;-60
2022/09/17 06:21:14;;;;;;;5.90;1.60;;;;;;;9.44;82.02;98185.91;446868;1274;142059;-58
2022/09/17 06:31:20;;;;;;;7.40;1.80;;;;;;;9.57;81.38;98189.39;446892;1274;143612;-59
2022/09/17 06:41:26;;;;;;;2.30;1.50;;;;;;;9.68;81.38;98187.27;446097;1274;143013;-58
2022/09/17 06:51:31;;;;;;;2.80;2.10;;;;;;;9.68;81.45;98194.98;446848;1274;143256;-59
2022/09/17 07:01:37;;;;;;;2.80;2.00;;;;;;;9.70;81.84;98199.73;446473;1275;145477;-59
2022/09/17 07:11:43;;;;;;;3.50;1.80;;;;;;;9.81;82.02;98209.16;445741;1275;144921;-59
2022/09/17 07:21:50;;;;;;;4.30;1.90;;;;;;;9.82;81.55;98219.67;446414;1275;142152;-59
2022/09/17 07:31:58;;;;;;;3.20;2.50;;;;;;;9.93;81.81;98227.15;446826;1274;143029;-59
2022/09/17 07:42:04;;;;;;;2.50;2.10;;;;;;;9.86;81.96;98221.14;446829;1273;141908;-60
2022/09/17 07:52:09;;;;;;;3.30;2.40;;;;;;;10.03;82.58;98219.40;447100;1273;144056;-60
2022/09/17 08:02:15;;;;;;;2.60;2.40;;;;;;;10.34;82.50;98220.77;433626;1273;142505;-59
2022/09/17 08:12:28;;;;;;;3.70;2.10;;;;;;;10.37;81.98;98240.73;442744;1273;141894;-59
2022/09/17 08:22:33;;;;;;;3.10;2.20;;;;;;;10.43;82.33;98254.36;447049;1273;142388;-59
2022/09/17 08:32:39;;;;;;;5.40;2.30;;;;;;;10.94;82.32;98258.81;446260;1273;143313;-59
2022/09/17 08:42:53;;;;;;;1.90;1.60;;;;;;;11.78;81.49;98254.80;447011;1273;198517;-59
2022/09/17 08:53:10;;;;;;;3.90;1.60;;;;;;;12.60;79.65;98253.16;445051;1273;1619591;-58
2022/09/17 09:03:29;;;;;;;1.40;1.30;;;;;;;12.63;78.50;98252.67;446976;1272;142740;-58
2022/09/17 09:13:41;;;;;;;1.50;1.10;;;;;;;12.69;77.86;98247.55;446540;1275;142550;-59
2022/09/17 09:23:55;;;;;;;0.80;0.80;;;;;;;13.38;77.25;98245.41;445863;1275;142469;-58
2022/09/17 09:34:04;;;;;;;0.70;0.70;;;;;;;14.29;74.40;98245.95;446966;1272;141535;-58
2022/09/17 09:44:14;;;;;;;0.90;0.80;;;;;;;13.58;73.45;98252.63;446128;1270;142576;-58
2022/09/17 09:54:48;;;;;;;1.50;0.60;;;;;;;13.04;74.19;98264.64;446910;1273;142377;-59
2022/09/17 10:04:54;;;;;;;2.50;1.00;;;;;;;12.57;74.43;98283.44;446971;1273;141529;-62
2022/09/17 10:15:24;;;;;;;1.40;1.30;;;;;;;13.02;75.16;98286.41;446851;1272;143566;-62
2022/09/17 10:25:33;;;;;;;1.20;1.10;;;;;;;14.10;72.68;98307.42;442582;1273;142449;-62
2022/09/17 10:35:39;;;;;;;2.00;1.20;;;;;;;14.68;71.58;98297.79;443198;1272;142232;-62
2022/09/17 10:45:54;;;;;;;1.70;1.50;;;;;;;15.65;70.22;98311.31;441626;1273;143228;-63
2022/09/17 10:56:14;;;;;;;2.20;1.20;;;;;;;16.51;67.56;98297.42;435940;1272;142506;-62
2022/09/17 11:06:40;;;;;;;1.20;1.20;;;;;;;16.57;65.10;98294.41;438516;1274;142626;-61
2022/09/17 11:16:57;;;;;;;1.40;1.30;;;;;;;15.93;64.93;98299.46;439613;1273;142735;-62
2022/09/17 11:27:13;;;;;;;1.80;1.70;;;;;;;15.08;64.63;98302.35;432413;1273;151704;-59
2022/09/17 11:37:25;;;;;;;1.80;1.70;;;;;;;14.53;66.20;98314.40;433353;1270;146168;-62
2022/09/17 11:47:35;;;;;;;2.20;2.00;;;;;;;13.93;67.30;98328.20;440696;1272;142554;-61
2022/09/17 11:57:44;;;;;;;3.10;2.10;;;;;;;13.67;68.13;98326.64;444791;1270;141420;-61
2022/09/17 12:07:56;;;;;;;3.60;3.20;;;;;;;13.48;68.67;98331.16;434825;1273;142462;-62
2022/09/17 12:18:16;;;;;;;3.50;3.10;;;;;;;13.07;69.67;98317.43;430161;1274;142574;-62
2022/09/17 12:28:47;;;;;;;3.00;2.80;;;;;;;13.12;70.61;98303.77;446897;1271;143611;-62
2022/09/17 12:39:20;;;;;;;4.60;2.70;;;;;;;13.15;71.43;98285.57;446083;1273;142484;-62
2022/09/17 12:49:46;;;;;;;6.20;3.70;;;;;;;13.77;71.51;98274.36;446677;1273;142689;-65
2022/09/17 12:59:59;;;;;;;3.20;2.80;;;;;;;14.20;70.88;98270.17;445980;1273;143382;-62
2022/09/17 13:10:46;;;;;;;3.70;2.80;;;;;;;14.46;70.62;98263.48;446806;1273;143199;-62
2022/09/17 13:21:04;;;;;;;3.50;3.20;;;;;;;14.76;69.98;98264.79;445581;1274;144624;-61
2022/09/17 13:31:10;;;;;;;2.60;2.50;;;;;;;14.94;69.68;98267.81;446945;1270;145709;-62
2022/09/17 13:41:26;;;;;;;4.30;3.70;;;;;;;15.36;68.77;98256.62;445870;1273;144746;-61
2022/09/17 13:51:51;;;;;;;3.90;3.20;;;;;;;15.22;68.47;98258.98;446694;1274;142396;-61
2022/09/17 14:02:17;;;;;;;7.00;3.90;;;;;;;15.13;68.28;98254.14;446144;1273;142589;-60
2022/09/17 14:12:55;;;;;;;5.60;3.60;;;;;;;15.03;68.34;98249.64;445979;1274;211328;-62
2022/09/17 14:23:02;;;;;;;5.30;2.90;;;;;;;15.05;68.32;98246.25;445596;1274;187203;-60
2022/09/17 14:33:16;;;;;;;10.10;3.40;;;;;;;14.83;68.01;98252.95;446503;1274;142286;-62
2022/09/17 14:43:31;;;;;;;4.00;2.70;;;;;;;14.66;67.88;98258.64;446882;1273;143414;-62
2022/09/17 14:53:37;;;;;;;2.30;2.10;;;;;;;14.25;67.62;98247.61;446048;1273;143795;-63
2022/09/17 15:03:42;;;;;;;7.30;2.20;;;;;;;13.99;68.16;98224.88;444438;1275;142544;-61
2022/09/17 15:13:51;;;;;;;5.20;3.20;;;;;;;13.96;68.61;98203.54;429889;1273;143623;-62
2022/09/17 15:24:02;;;;;;;3.50;3.20;;;;;;;13.82;69.02;98223.28;429257;1273;142515;-62
2022/09/17 15:34:10;;;;;;;8.50;3.90;;;;;;;13.60;69.48;98233.16;447029;1273;142884;-61
2022/09/17 15:44:23;;;;;;;14.50;9.00;;;;;;;13.48;69.80;98250.45;445898;1273;188458;-62
2022/09/17 15:54:38;;;;;;;11.40;8.10;;;;;;;13.26;70.41;98246.77;446998;1272;142152;-62
2022/09/17 16:04:44;;;;;;;8.60;4.40;;;;;;;13.03;71.02;98223.79;447052;1273;143321;-62
2022/09/17 16:14:52;;;;;;;5.00;3.30;;;;;;;12.91;71.28;98225.27;446320;1273;143949;-62
2022/09/17 16:24:57;;;;;;;4.30;3.80;;;;;;;12.71;71.65;98234.24;446482;1275;144967;-62
2022/09/17 16:35:04;;;;;;;5.70;3.60;;;;;;;12.57;72.18;98257.80;446188;1273;142288;-61
2022/09/17 16:45:10;;;;;;;5.40;3.80;;;;;;;12.42;72.64;98256.58;446989;1272;142799;-62
2022/09/17 16:55:17;;;;;;;6.40;3.70;;;;;;;12.22;73.09;98253.95;447034;1272;142534;-62
2022/09/17 17:05:24;;;;;;;6.00;3.40;;;;;;;12.02;73.53;98258.41;438962;1273;142246;-62
2022/09/17 17:15:30;;;;;;;6.40;4.20;;;;;;;11.74;74.27;98270.70;432040;1273;141088;-60
2022/09/17 17:25:36;;;;;;;6.00;4.80;;;;;;;11.45;75.06;98265.27;442655;1273;142282;-60
2022/09/17 17:35:41;;;;;;;6.20;5.30;;;;;;;11.23;76.02;98253.12;431937;1273;142862;-60
2022/09/17 17:45:47;;;;;;;6.30;5.60;;;;;;;11.15;76.70;98249.84;446954;1271;142526;-62
2022/09/17 17:56:01;;;;;;;10.60;5.70;;;;;;;11.10;77.42;98257.46;433157;1273;142199;-61
2022/09/17 18:06:08;;;;;;;9.80;6.00;;;;;;;11.14;77.92;98269.14;438371;1273;142904;-62
2022/09/17 18:16:16;;;;;;;8.60;6.90;;;;;;;11.12;78.64;98290.70;446653;1275;142089;-62
2022/09/17 18:26:23;;;;;;;6.20;5.50;;;;;;;11.09;79.72;98300.79;433179;1273;141986;-62
2022/09/17 18:36:31;;;;;;;6.90;5.20;;;;;;;11.04;80.27;98289.81;438360;1273;145776;-63
2022/09/17 18:46:37;;;;;;;11.60;6.70;;;;;;;10.98;80.82;98283.65;442562;1273;147116;-63
2022/09/17 18:56:43;;;;;;;8.20;7.30;;;;;;;10.91;81.25;98273.43;431607;1273;142065;-62
2022/09/17 19:06:49;;;;;;;9.40;7.90;;;;;;;10.77;81.66;98258.35;436873;1273;143636;-62
2022/09/17 19:16:55;;;;;;;12.50;8.60;;;;;;;10.54;82.02;98250.35;429888;1273;142276;-59
2022/09/17 19:27:03;;;;;;;14.60;10.20;;;;;;;10.22;82.20;98246.84;441950;1273;146981;-63
2022/09/17 19:37:08;;;;;;;9.40;7.40;;;;;;;9.89;82.84;98249.55;443989;1273;142847;-63
2022/09/17 19:47:14;;;;;;;11.70;8.10;;;;;;;9.78;83.55;98257.23;437292;1273;142540;-63
2022/09/17 19:57:20;;;;;;;8.30;7.20;;;;;;;9.65;83.84;98256.95;442386;1273;142978;-62
2022/09/17 20:07:27;;;;;;;9.60;7.50;;;;;;;9.46;84.02;98257.52;446999;1273;142429;-63
2022/09/17 20:17:33;;;;;;;9.90;7.60;;;;;;;9.47;84.55;98267.23;434899;1273;145536;-61
2022/09/17 20:27:39;;;;;;;8.00;7.20;;;;;;;9.64;84.96;98271.30;429734;1273;144402;-63
2022/09/17 20:37:45;;;;;;;7.40;6.70;;;;;;;9.65;84.88;98267.39;431080;1273;142236;-62
2022/09/17 20:48:10;;;;;;;8.30;6.50;;;;;;;9.58;85.17;98264.48;430046;1273;1432750;-63
2022/09/17 20:58:18;;;;;;;7.30;6.30;;;;;;;9.50;85.21;98267.56;431031;1273;143180;-63
2022/09/17 21:08:24;;;;;;;7.40;5.50;;;;;;;9.49;85.62;98276.35;430075;1276;148913;-63
2022/09/17 21:18:30;;;;;;;9.20;5.60;;;;;;;9.61;86.02;98277.70;430047;1273;147742;-62
2022/09/17 21:28:43;;;;;;;6.60;4.30;;;;;;;9.67;86.13;98273.50;434277;1273;143761;-62
2022/09/17 21:38:53;;;;;;;4.80;3.50;;;;;;;9.62;86.18;98267.42;431021;1273;142209;-60
2022/09/17 21:49:01;;;;;;;6.30;4.50;;;;;;;9.63;86.49;98274.54;433435;1273;153167;-62
2022/09/17 21:59:09;;;;;;;7.10;5.00;;;;;;;9.66;86.70;98272.52;429422;1275;142441;-61
2022/09/17 22:09:17;;;;;;;6.80;3.80;;;;;;;9.66;86.90;98266.05;430789;1273;145553;-61
2022/09/17 22:19:22;;;;;;;;;;;;;;;9.72;86.98;98262.98;430670;1274;143605;-60
2022/09/17 22:29:30;;;;;;;7.80;4.70;;;;;;;9.74;87.02;98260.02;430636;1273;127810;-60
2022/09/17 22:39:37;;;;;;;7.90;4.00;;;;;;;9.74;86.92;98248.16;430581;1274;144381;-61
2022/09/17 22:49:42;;;;;;;9.20;3.90;;;;;;;9.72;86.64;98247.25;430117;1274;142211;-60
2022/09/17 22:59:48;;;;;;;6.50;3.30;;;;;;;9.68;86.57;98237.95;430155;1273;141953;-61
2022/09/17 23:09:54;;;;;;;6.60;3.90;;;;;;;9.60;86.62;98227.29;430968;1274;142230;-60
2022/09/17 23:19:59;;;;;;;9.10;4.30;;;;;;;9.53;86.63;98228.36;444356;1272;146119;-61
2022/09/17 23:30:06;;;;;;;9.60;4.80;;;;;;;9.41;86.60;98225.63;447071;1273;142809;-62
2022/09/17 23:40:12;;;;;;;8.00;5.30;;;;;;;9.26;86.61;98223.69;446991;1273;143293;-62
2022/09/17 23:50:18;;;;;;;8.90;4.80;;;;;;;9.05;86.91;98219.73;446267;1272;142320;-62
